sensor_id;sensor_type;location;lat;lon;timestamp;temperature;humidity
71117;SHT31;58775;46.992;9.518;2024-01-15T00:01:06;0.76;90.92
71117;SHT31;58775;46.992;9.518;2024-01-15T00:03:07;0.68;91.31
71117;SHT31;58775;46.992;9.518;2024-01-15T00:05:08;0.68;91.92
71117;SHT31;58775;46.992;9.518;2024-01-15T00:07:09;0.71;91.92
71117;SHT31;58775;46.992;9.518;2024-01-15T00:09:10;0.76;91.62
71117;SHT31;58775;46.992;9.518;2024-01-15T00:11:11;0.82;91.65
71117;SHT31;58775;46.992;9.518;2024-01-15T00:13:12;0.76;91.93
71117;SHT31;58775;46.992;9.518;2024-01-15T00:15:13;0.72;92.44
71117;SHT31;58775;46.992;9.518;2024-01-15T00:17:14;0.71;92.16
71117;SHT31;58775;46.992;9.518;2024-01-15T00:19:15;0.57;93.66
71117;SHT31;58775;46.992;9.518;2024-01-15T00:21:16;0.65;93.20
71117;SHT31;58775;46.992;9.518;2024-01-15T00:23:16;0.65;92.92
71117;SHT31;58775;46.992;9.518;2024-01-15T00:25:17;0.65;92.89
71117;SHT31;58775;46.992;9.518;2024-01-15T00:27:18;0.72;92.74
71117;SHT31;58775;46.992;9.518;2024-01-15T00:29:19;0.76;91.81
71117;SHT31;58775;46.992;9.518;2024-01-15T00:31:20;0.52;93.28
71117;SHT31;58775;46.992;9.518;2024-01-15T00:33:21;0.38;94.70
71117;SHT31;58775;46.992;9.518;2024-01-15T00:35:22;0.47;94.49
71117;SHT31;58775;46.992;9.518;2024-01-15T00:37:22;0.58;94.26
71117;SHT31;58775;46.992;9.518;2024-01-15T00:39:23;0.64;94.02
71117;SHT31;58775;46.992;9.518;2024-01-15T00:41:24;0.62;94.51
71117;SHT31;58775;46.992;9.518;2024-01-15T00:43:25;0.66;94.85
71117;SHT31;58775;46.992;9.518;2024-01-15T00:45:25;0.73;94.37
71117;SHT31;58775;46.992;9.518;2024-01-15T00:47:26;0.71;94.95
71117;SHT31;58775;46.992;9.518;2024-01-15T00:49:27;0.71;94.50
71117;SHT31;58775;46.992;9.518;2024-01-15T00:51:28;0.76;94.21
71117;SHT31;58775;46.992;9.518;2024-01-15T00:53:29;0.76;94.27
71117;SHT31;58775;46.992;9.518;2024-01-15T00:55:29;0.71;94.98
71117;SHT31;58775;46.992;9.518;2024-01-15T00:57:30;0.76;95.06
71117;SHT31;58775;46.992;9.518;2024-01-15T00:59:31;0.82;94.59
71117;SHT31;58775;46.992;9.518;2024-01-15T01:01:32;0.88;94.53
71117;SHT31;58775;46.992;9.518;2024-01-15T01:03:32;0.82;95.08
71117;SHT31;58775;46.992;9.518;2024-01-15T01:05:34;0.85;95.38
71117;SHT31;58775;46.992;9.518;2024-01-15T01:07:35;0.92;95.16
71117;SHT31;58775;46.992;9.518;2024-01-15T01:09:36;0.97;94.78
71117;SHT31;58775;46.992;9.518;2024-01-15T01:11:37;1.00;94.76
71117;SHT31;58775;46.992;9.518;2024-01-15T01:13:37;1.02;94.90
71117;SHT31;58775;46.992;9.518;2024-01-15T01:15:39;1.02;94.90
71117;SHT31;58775;46.992;9.518;2024-01-15T01:17:40;1.03;94.89
71117;SHT31;58775;46.992;9.518;2024-01-15T01:19:41;1.10;94.83
71117;SHT31;58775;46.992;9.518;2024-01-15T01:21:41;1.10;94.84
71117;SHT31;58775;46.992;9.518;2024-01-15T01:23:42;1.10;94.81
71117;SHT31;58775;46.992;9.518;2024-01-15T01:25:43;1.02;95.19
71117;SHT31;58775;46.992;9.518;2024-01-15T01:27:44;0.93;96.40
71117;SHT31;58775;46.992;9.518;2024-01-15T01:29:44;0.97;95.96
71117;SHT31;58775;46.992;9.518;2024-01-15T01:31:46;0.93;95.27
71117;SHT31;58775;46.992;9.518;2024-01-15T01:33:49;1.03;95.68
71117;SHT31;58775;46.992;9.518;2024-01-15T01:35:50;0.88;96.32
71117;SHT31;58775;46.992;9.518;2024-01-15T01:37:51;0.64;97.72
71117;SHT31;58775;46.992;9.518;2024-01-15T01:39:52;0.58;98.49
71117;SHT31;58775;46.992;9.518;2024-01-15T01:41:53;0.52;98.95
71117;SHT31;58775;46.992;9.518;2024-01-15T01:43:53;0.58;99.15
71117;SHT31;58775;46.992;9.518;2024-01-15T01:45:56;0.65;99.07
71117;SHT31;58775;46.992;9.518;2024-01-15T01:47:59;0.76;98.65
71117;SHT31;58775;46.992;9.518;2024-01-15T01:50:02;0.78;98.22
71117;SHT31;58775;46.992;9.518;2024-01-15T01:52:04;0.79;99.01
71117;SHT31;58775;46.992;9.518;2024-01-15T01:54:07;0.81;98.86
71117;SHT31;58775;46.992;9.518;2024-01-15T01:56:09;0.88;98.72
71117;SHT31;58775;46.992;9.518;2024-01-15T01:58:10;0.99;98.32
71117;SHT31;58775;46.992;9.518;2024-01-15T02:00:12;0.93;97.49
71117;SHT31;58775;46.992;9.518;2024-01-15T02:02:13;0.86;98.29
71117;SHT31;58775;46.992;9.518;2024-01-15T02:04:15;0.89;98.80
71117;SHT31;58775;46.992;9.518;2024-01-15T02:06:16;0.97;98.53
71117;SHT31;58775;46.992;9.518;2024-01-15T02:08:17;1.02;97.48
71117;SHT31;58775;46.992;9.518;2024-01-15T02:10:17;1.03;97.47
71117;SHT31;58775;46.992;9.518;2024-01-15T02:12:18;1.03;97.18
71117;SHT31;58775;46.992;9.518;2024-01-15T02:14:19;1.06;97.30
71117;SHT31;58775;46.992;9.518;2024-01-15T02:16:20;1.04;97.69
71117;SHT31;58775;46.992;9.518;2024-01-15T02:18:21;0.99;97.67
71117;SHT31;58775;46.992;9.518;2024-01-15T02:20:22;0.95;97.68
71117;SHT31;58775;46.992;9.518;2024-01-15T02:22:22;1.04;97.96
71117;SHT31;58775;46.992;9.518;2024-01-15T02:24:23;1.03;97.36
71117;SHT31;58775;46.992;9.518;2024-01-15T02:26:24;1.00;97.96
71117;SHT31;58775;46.992;9.518;2024-01-15T02:28:25;1.02;97.91
71117;SHT31;58775;46.992;9.518;2024-01-15T02:30:27;1.09;97.80
71117;SHT31;58775;46.992;9.518;2024-01-15T02:32:29;0.99;97.62
71117;SHT31;58775;46.992;9.518;2024-01-15T02:34:32;0.97;97.74
71117;SHT31;58775;46.992;9.518;2024-01-15T02:36:32;1.02;98.36
71117;SHT31;58775;46.992;9.518;2024-01-15T02:38:33;0.97;97.60
71117;SHT31;58775;46.992;9.518;2024-01-15T02:40:34;1.00;98.29
71117;SHT31;58775;46.992;9.518;2024-01-15T02:42:35;1.12;98.07
71117;SHT31;58775;46.992;9.518;2024-01-15T02:44:36;1.13;97.16
71117;SHT31;58775;46.992;9.518;2024-01-15T02:46:37;1.16;97.12
71117;SHT31;58775;46.992;9.518;2024-01-15T02:48:38;1.03;97.39
71117;SHT31;58775;46.992;9.518;2024-01-15T02:50:38;1.03;97.83
71117;SHT31;58775;46.992;9.518;2024-01-15T02:52:41;1.06;97.88
71117;SHT31;58775;46.992;9.518;2024-01-15T02:54:43;1.06;98.13
71117;SHT31;58775;46.992;9.518;2024-01-15T02:56:43;1.07;97.96
71117;SHT31;58775;46.992;9.518;2024-01-15T02:58:44;0.99;97.83
71117;SHT31;58775;46.992;9.518;2024-01-15T03:00:45;0.96;98.06
71117;SHT31;58775;46.992;9.518;2024-01-15T03:02:48;0.93;98.42
71117;SHT31;58775;46.992;9.518;2024-01-15T03:04:48;0.92;98.71
71117;SHT31;58775;46.992;9.518;2024-01-15T03:06:49;1.00;98.65
71117;SHT31;58775;46.992;9.518;2024-01-15T03:08:50;1.16;97.91
71117;SHT31;58775;46.992;9.518;2024-01-15T03:10:51;1.00;97.18
71117;SHT31;58775;46.992;9.518;2024-01-15T03:12:52;0.71;98.80
71117;SHT31;58775;46.992;9.518;2024-01-15T03:14:53;0.66;99.99
71117;SHT31;58775;46.992;9.518;2024-01-15T03:16:54;0.69;99.99
71117;SHT31;58775;46.992;9.518;2024-01-15T03:18:54;0.81;99.99
71117;SHT31;58775;46.992;9.518;2024-01-15T03:20:55;0.95;99.39
71117;SHT31;58775;46.992;9.518;2024-01-15T03:22:56;0.83;98.86
71117;SHT31;58775;46.992;9.518;2024-01-15T03:24:57;0.89;99.41
71117;SHT31;58775;46.992;9.518;2024-01-15T03:27:01;0.89;98.54
71117;SHT31;58775;46.992;9.518;2024-01-15T03:29:02;0.83;98.37
71117;SHT31;58775;46.992;9.518;2024-01-15T03:31:03;0.85;98.80
71117;SHT31;58775;46.992;9.518;2024-01-15T03:33:04;0.88;98.93
71117;SHT31;58775;46.992;9.518;2024-01-15T03:35:05;0.88;98.24
71117;SHT31;58775;46.992;9.518;2024-01-15T03:37:06;0.81;98.38
71117;SHT31;58775;46.992;9.518;2024-01-15T03:39:07;0.83;99.10
71117;SHT31;58775;46.992;9.518;2024-01-15T03:41:08;0.72;98.24
71117;SHT31;58775;46.992;9.518;2024-01-15T03:43:09;0.71;99.16
71117;SHT31;58775;46.992;9.518;2024-01-15T03:45:10;0.79;99.26
71117;SHT31;58775;46.992;9.518;2024-01-15T03:47:11;0.89;98.52
71117;SHT31;58775;46.992;9.518;2024-01-15T03:49:12;0.90;98.63
71117;SHT31;58775;46.992;9.518;2024-01-15T03:51:12;0.78;97.96
71117;SHT31;58775;46.992;9.518;2024-01-15T03:53:16;0.72;98.90
71117;SHT31;58775;46.992;9.518;2024-01-15T03:55:16;0.79;99.08
71117;SHT31;58775;46.992;9.518;2024-01-15T03:57:17;0.72;99.57
71117;SHT31;58775;46.992;9.518;2024-01-15T03:59:18;0.79;99.53
71117;SHT31;58775;46.992;9.518;2024-01-15T04:01:19;0.86;98.98
71117;SHT31;58775;46.992;9.518;2024-01-15T04:03:19;0.78;97.98
71117;SHT31;58775;46.992;9.518;2024-01-15T04:05:20;0.78;98.67
71117;SHT31;58775;46.992;9.518;2024-01-15T04:07:21;0.86;98.80
71117;SHT31;58775;46.992;9.518;2024-01-15T04:09:22;0.89;98.23
71117;SHT31;58775;46.992;9.518;2024-01-15T04:11:23;0.85;97.96
71117;SHT31;58775;46.992;9.518;2024-01-15T04:13:23;0.83;98.48
71117;SHT31;58775;46.992;9.518;2024-01-15T04:15:24;0.88;98.59
71117;SHT31;58775;46.992;9.518;2024-01-15T04:17:25;0.89;98.41
71117;SHT31;58775;46.992;9.518;2024-01-15T04:19:26;0.68;98.68
71117;SHT31;58775;46.992;9.518;2024-01-15T04:21:27;0.71;99.67
71117;SHT31;58775;46.992;9.518;2024-01-15T04:23:27;0.83;99.52
71117;SHT31;58775;46.992;9.518;2024-01-15T04:25:28;0.79;98.68
71117;SHT31;58775;46.992;9.518;2024-01-15T04:27:29;0.86;99.15
71117;SHT31;58775;46.992;9.518;2024-01-15T04:29:30;0.89;98.58
71117;SHT31;58775;46.992;9.518;2024-01-15T04:31:31;0.79;98.06
71117;SHT31;58775;46.992;9.518;2024-01-15T04:33:31;0.83;98.73
71117;SHT31;58775;46.992;9.518;2024-01-15T04:35:33;0.79;98.87
71117;SHT31;58775;46.992;9.518;2024-01-15T04:37:34;0.86;99.44
71117;SHT31;58775;46.992;9.518;2024-01-15T04:39:35;0.95;98.86
71117;SHT31;58775;46.992;9.518;2024-01-15T04:41:36;0.96;98.46
71117;SHT31;58775;46.992;9.518;2024-01-15T04:43:36;1.04;98.17
71117;SHT31;58775;46.992;9.518;2024-01-15T04:45:37;1.00;97.63
71117;SHT31;58775;46.992;9.518;2024-01-15T04:47:38;0.99;98.04
71117;SHT31;58775;46.992;9.518;2024-01-15T04:49:39;0.97;97.74
71117;SHT31;58775;46.992;9.518;2024-01-15T04:51:40;0.99;98.38
71117;SHT31;58775;46.992;9.518;2024-01-15T04:53:41;1.06;98.04
71117;SHT31;58775;46.992;9.518;2024-01-15T04:55:42;1.02;97.72
71117;SHT31;58775;46.992;9.518;2024-01-15T04:57:42;1.00;98.07
71117;SHT31;58775;46.992;9.518;2024-01-15T04:59:44;0.96;98.17
71117;SHT31;58775;46.992;9.518;2024-01-15T05:01:45;1.06;98.52
71117;SHT31;58775;46.992;9.518;2024-01-15T05:03:46;1.00;98.37
71117;SHT31;58775;46.992;9.518;2024-01-15T05:05:46;0.99;98.58
71117;SHT31;58775;46.992;9.518;2024-01-15T05:07:47;1.09;98.61
71117;SHT31;58775;46.992;9.518;2024-01-15T05:09:48;1.15;97.90
71117;SHT31;58775;46.992;9.518;2024-01-15T05:11:49;1.15;97.64
71117;SHT31;58775;46.992;9.518;2024-01-15T05:13:49;1.13;97.71
71117;SHT31;58775;46.992;9.518;2024-01-15T05:15:50;1.12;97.69
71117;SHT31;58775;46.992;9.518;2024-01-15T05:17:51;1.10;97.63
71117;SHT31;58775;46.992;9.518;2024-01-15T05:19:52;1.06;97.61
71117;SHT31;58775;46.992;9.518;2024-01-15T05:21:53;1.04;97.77
71117;SHT31;58775;46.992;9.518;2024-01-15T05:23:53;1.10;98.03
71117;SHT31;58775;46.992;9.518;2024-01-15T05:25:54;1.02;97.48
71117;SHT31;58775;46.992;9.518;2024-01-15T05:27:55;0.99;98.43
71117;SHT31;58775;46.992;9.518;2024-01-15T05:29:56;0.99;98.26
71117;SHT31;58775;46.992;9.518;2024-01-15T05:31:57;1.15;97.76
71117;SHT31;58775;46.992;9.518;2024-01-15T05:33:58;1.12;97.28
71117;SHT31;58775;46.992;9.518;2024-01-15T05:35:58;1.02;96.92
71117;SHT31;58775;46.992;9.518;2024-01-15T05:37:59;0.95;98.11
71117;SHT31;58775;46.992;9.518;2024-01-15T05:40:00;0.89;98.45
71117;SHT31;58775;46.992;9.518;2024-01-15T05:42:01;0.96;98.96
71117;SHT31;58775;46.992;9.518;2024-01-15T05:44:02;0.96;98.22
71117;SHT31;58775;46.992;9.518;2024-01-15T05:46:03;0.78;98.55
71117;SHT31;58775;46.992;9.518;2024-01-15T05:48:05;0.69;98.91
71117;SHT31;58775;46.992;9.518;2024-01-15T05:50:09;0.59;99.76
71117;SHT31;58775;46.992;9.518;2024-01-15T05:52:10;0.61;99.99
71117;SHT31;58775;46.992;9.518;2024-01-15T05:54:11;0.62;99.99
71117;SHT31;58775;46.992;9.518;2024-01-15T05:56:11;0.68;99.99
71117;SHT31;58775;46.992;9.518;2024-01-15T05:58:12;0.76;99.99
71117;SHT31;58775;46.992;9.518;2024-01-15T06:00:13;0.86;99.87
71117;SHT31;58775;46.992;9.518;2024-01-15T06:02:14;0.95;99.53
71117;SHT31;58775;46.992;9.518;2024-01-15T06:04:15;0.95;98.63
71117;SHT31;58775;46.992;9.518;2024-01-15T06:06:16;0.89;99.12
71117;SHT31;58775;46.992;9.518;2024-01-15T06:08:17;0.95;99.62
71117;SHT31;58775;46.992;9.518;2024-01-15T06:10:19;0.96;99.43
71117;SHT31;58775;46.992;9.518;2024-01-15T06:12:20;0.89;98.92
71117;SHT31;58775;46.992;9.518;2024-01-15T06:14:21;0.85;99.29
71117;SHT31;58775;46.992;9.518;2024-01-15T06:16:23;0.92;99.60
71117;SHT31;58775;46.992;9.518;2024-01-15T06:18:24;0.92;99.38
71117;SHT31;58775;46.992;9.518;2024-01-15T06:20:25;0.97;99.37
71117;SHT31;58775;46.992;9.518;2024-01-15T06:22:26;0.95;98.99
71117;SHT31;58775;46.992;9.518;2024-01-15T06:24:26;0.90;98.30
71117;SHT31;58775;46.992;9.518;2024-01-15T06:26:27;0.85;99.05
71117;SHT31;58775;46.992;9.518;2024-01-15T06:28:28;0.82;99.30
71117;SHT31;58775;46.992;9.518;2024-01-15T06:30:29;0.96;98.40
71117;SHT31;58775;46.992;9.518;2024-01-15T06:32:30;1.06;98.41
71117;SHT31;58775;46.992;9.518;2024-01-15T06:34:31;1.07;98.25
71117;SHT31;58775;46.992;9.518;2024-01-15T06:36:32;1.09;98.05
71117;SHT31;58775;46.992;9.518;2024-01-15T06:38:33;1.15;98.28
71117;SHT31;58775;46.992;9.518;2024-01-15T06:40:34;1.15;97.96
71117;SHT31;58775;46.992;9.518;2024-01-15T06:42:35;1.10;97.87
71117;SHT31;58775;46.992;9.518;2024-01-15T06:44:36;1.00;97.94
71117;SHT31;58775;46.992;9.518;2024-01-15T06:46:41;0.99;98.24
71117;SHT31;58775;46.992;9.518;2024-01-15T06:48:42;0.99;98.55
71117;SHT31;58775;46.992;9.518;2024-01-15T06:50:43;1.12;98.39
71117;SHT31;58775;46.992;9.518;2024-01-15T06:52:44;1.04;98.21
71117;SHT31;58775;46.992;9.518;2024-01-15T06:54:44;1.06;98.28
71117;SHT31;58775;46.992;9.518;2024-01-15T06:56:45;1.07;98.38
71117;SHT31;58775;46.992;9.518;2024-01-15T06:58:46;1.09;98.39
71117;SHT31;58775;46.992;9.518;2024-01-15T07:00:47;1.03;97.94
71117;SHT31;58775;46.992;9.518;2024-01-15T07:02:47;1.07;98.15
71117;SHT31;58775;46.992;9.518;2024-01-15T07:04:48;1.04;97.89
71117;SHT31;58775;46.992;9.518;2024-01-15T07:06:49;1.09;98.58
71117;SHT31;58775;46.992;9.518;2024-01-15T07:08:50;1.03;98.05
71117;SHT31;58775;46.992;9.518;2024-01-15T07:10:51;1.06;98.64
71117;SHT31;58775;46.992;9.518;2024-01-15T07:12:52;1.13;98.49
71117;SHT31;58775;46.992;9.518;2024-01-15T07:14:54;1.10;98.02
71117;SHT31;58775;46.992;9.518;2024-01-15T07:16:55;1.09;98.08
71117;SHT31;58775;46.992;9.518;2024-01-15T07:18:56;1.10;98.43
71117;SHT31;58775;46.992;9.518;2024-01-15T07:20:57;1.10;98.20
71117;SHT31;58775;46.992;9.518;2024-01-15T07:22:57;1.06;97.95
71117;SHT31;58775;46.992;9.518;2024-01-15T07:24:58;1.06;98.73
71117;SHT31;58775;46.992;9.518;2024-01-15T07:26:59;1.13;98.80
71117;SHT31;58775;46.992;9.518;2024-01-15T07:29:00;1.15;98.25
71117;SHT31;58775;46.992;9.518;2024-01-15T07:31:01;1.20;98.08
71117;SHT31;58775;46.992;9.518;2024-01-15T07:33:02;1.17;98.39
71117;SHT31;58775;46.992;9.518;2024-01-15T07:35:05;1.20;97.84
71117;SHT31;58775;46.992;9.518;2024-01-15T07:37:06;1.22;97.78
71117;SHT31;58775;46.992;9.518;2024-01-15T07:39:07;1.31;97.75
71117;SHT31;58775;46.992;9.518;2024-01-15T07:41:08;1.20;97.53
71117;SHT31;58775;46.992;9.518;2024-01-15T07:43:09;1.16;96.92
71117;SHT31;58775;46.992;9.518;2024-01-15T07:45:12;1.29;98.03
71117;SHT31;58775;46.992;9.518;2024-01-15T07:47:13;1.50;96.19
71117;SHT31;58775;46.992;9.518;2024-01-15T07:49:14;1.63;96.08
71117;SHT31;58775;46.992;9.518;2024-01-15T07:51:15;1.53;94.84
71117;SHT31;58775;46.992;9.518;2024-01-15T07:53:16;1.61;95.67
71117;SHT31;58775;46.992;9.518;2024-01-15T07:55:17;1.58;95.85
71117;SHT31;58775;46.992;9.518;2024-01-15T07:57:18;1.74;94.95
71117;SHT31;58775;46.992;9.518;2024-01-15T07:59:18;1.81;94.29
71117;SHT31;58775;46.992;9.518;2024-01-15T08:01:19;1.58;94.50
71117;SHT31;58775;46.992;9.518;2024-01-15T08:03:20;1.81;95.32
71117;SHT31;58775;46.992;9.518;2024-01-15T08:05:21;1.75;93.19
71117;SHT31;58775;46.992;9.518;2024-01-15T08:07:22;1.98;94.31
71117;SHT31;58775;46.992;9.518;2024-01-15T08:09:22;2.11;93.44
71117;SHT31;58775;46.992;9.518;2024-01-15T08:11:23;2.18;92.82
71117;SHT31;58775;46.992;9.518;2024-01-15T08:13:26;2.16;92.02
71117;SHT31;58775;46.992;9.518;2024-01-15T08:15:28;2.33;91.67
71117;SHT31;58775;46.992;9.518;2024-01-15T08:17:29;2.32;91.69
71117;SHT31;58775;46.992;9.518;2024-01-15T08:19:30;2.43;92.07
71117;SHT31;58775;46.992;9.518;2024-01-15T08:21:30;2.43;91.90
71117;SHT31;58775;46.992;9.518;2024-01-15T08:23:34;2.42;91.43
71117;SHT31;58775;46.992;9.518;2024-01-15T08:25:35;2.33;92.27
71117;SHT31;58775;46.992;9.518;2024-01-15T08:27:36;2.40;91.23
71117;SHT31;58775;46.992;9.518;2024-01-15T08:29:37;2.54;90.21
71117;SHT31;58775;46.992;9.518;2024-01-15T08:31:37;2.43;90.21
71117;SHT31;58775;46.992;9.518;2024-01-15T08:33:38;2.49;90.75
71117;SHT31;58775;46.992;9.518;2024-01-15T08:35:39;2.52;91.52
71117;SHT31;58775;46.992;9.518;2024-01-15T08:37:40;2.53;90.91
71117;SHT31;58775;46.992;9.518;2024-01-15T08:39:40;2.57;90.23
71117;SHT31;58775;46.992;9.518;2024-01-15T08:41:41;2.37;90.22
71117;SHT31;58775;46.992;9.518;2024-01-15T08:43:42;2.40;91.04
71117;SHT31;58775;46.992;9.518;2024-01-15T08:45:43;2.46;91.19
71117;SHT31;58775;46.992;9.518;2024-01-15T08:47:44;2.56;89.97
71117;SHT31;58775;46.992;9.518;2024-01-15T08:49:44;2.73;89.80
71117;SHT31;58775;46.992;9.518;2024-01-15T08:51:46;2.73;90.12
71117;SHT31;58775;46.992;9.518;2024-01-15T08:53:48;2.64;89.97
71117;SHT31;58775;46.992;9.518;2024-01-15T08:55:49;2.80;89.12
71117;SHT31;58775;46.992;9.518;2024-01-15T08:57:50;2.60;88.89
71117;SHT31;58775;46.992;9.518;2024-01-15T08:59:51;2.57;89.84
71117;SHT31;58775;46.992;9.518;2024-01-15T09:01:52;2.66;89.26
71117;SHT31;58775;46.992;9.518;2024-01-15T09:03:53;2.60;89.25
71117;SHT31;58775;46.992;9.518;2024-01-15T09:05:55;2.66;89.29
71117;SHT31;58775;46.992;9.518;2024-01-15T09:07:56;2.72;88.51
71117;SHT31;58775;46.992;9.518;2024-01-15T09:09:57;2.45;89.54
71117;SHT31;58775;46.992;9.518;2024-01-15T09:11:59;2.60;88.78
71117;SHT31;58775;46.992;9.518;2024-01-15T09:14:00;2.72;87.83
71117;SHT31;58775;46.992;9.518;2024-01-15T09:16:01;2.70;88.11
71117;SHT31;58775;46.992;9.518;2024-01-15T09:18:02;2.57;87.54
71117;SHT31;58775;46.992;9.518;2024-01-15T09:20:04;2.60;89.34
71117;SHT31;58775;46.992;9.518;2024-01-15T09:22:06;2.67;88.52
71117;SHT31;58775;46.992;9.518;2024-01-15T09:24:07;2.50;89.44
71117;SHT31;58775;46.992;9.518;2024-01-15T09:26:10;2.67;87.63
71117;SHT31;58775;46.992;9.518;2024-01-15T09:28:13;2.43;87.81
71117;SHT31;58775;46.992;9.518;2024-01-15T09:30:15;2.74;87.39
71117;SHT31;58775;46.992;9.518;2024-01-15T09:32:18;2.80;87.54
71117;SHT31;58775;46.992;9.518;2024-01-15T09:34:23;2.80;87.65
71117;SHT31;58775;46.992;9.518;2024-01-15T09:36:26;2.72;87.44
71117;SHT31;58775;46.992;9.518;2024-01-15T09:38:27;2.57;87.29
71117;SHT31;58775;46.992;9.518;2024-01-15T09:40:31;2.46;88.07
71117;SHT31;58775;46.992;9.518;2024-01-15T09:42:34;2.06;89.40
71117;SHT31;58775;46.992;9.518;2024-01-15T09:44:36;2.02;88.88
71117;SHT31;58775;46.992;9.518;2024-01-15T09:46:38;2.06;90.58
71117;SHT31;58775;46.992;9.518;2024-01-15T09:48:39;2.36;88.55
71117;SHT31;58775;46.992;9.518;2024-01-15T09:50:40;2.15;89.55
71117;SHT31;58775;46.992;9.518;2024-01-15T09:52:41;2.40;88.43
71117;SHT31;58775;46.992;9.518;2024-01-15T09:54:44;2.09;89.55
71117;SHT31;58775;46.992;9.518;2024-01-15T09:56:46;1.98;88.39
71117;SHT31;58775;46.992;9.518;2024-01-15T09:58:47;2.01;89.64
71117;SHT31;58775;46.992;9.518;2024-01-15T10:00:49;1.97;89.32
71117;SHT31;58775;46.992;9.518;2024-01-15T10:02:50;1.84;89.97
71117;SHT31;58775;46.992;9.518;2024-01-15T10:04:51;1.97;91.21
71117;SHT31;58775;46.992;9.518;2024-01-15T10:06:53;2.06;89.44
71117;SHT31;58775;46.992;9.518;2024-01-15T10:08:56;2.02;91.09
71117;SHT31;58775;46.992;9.518;2024-01-15T10:10:58;1.75;90.72
71117;SHT31;58775;46.992;9.518;2024-01-15T10:12:59;1.85;91.72
71117;SHT31;58775;46.992;9.518;2024-01-15T10:15:01;2.06;90.59
71117;SHT31;58775;46.992;9.518;2024-01-15T10:17:12;2.35;89.30
71117;SHT31;58775;46.992;9.518;2024-01-15T10:19:13;2.40;88.64
71117;SHT31;58775;46.992;9.518;2024-01-15T10:21:14;2.33;88.62
71117;SHT31;58775;46.992;9.518;2024-01-15T10:23:16;2.42;88.38
71117;SHT31;58775;46.992;9.518;2024-01-15T10:25:16;2.47;88.07
71117;SHT31;58775;46.992;9.518;2024-01-15T10:27:22;2.56;87.97
71117;SHT31;58775;46.992;9.518;2024-01-15T10:29:24;2.50;88.08
71117;SHT31;58775;46.992;9.518;2024-01-15T10:31:26;2.26;88.53
71117;SHT31;58775;46.992;9.518;2024-01-15T10:33:27;2.35;88.36
71117;SHT31;58775;46.992;9.518;2024-01-15T10:35:33;2.18;89.24
71117;SHT31;58775;46.992;9.518;2024-01-15T10:37:34;2.30;88.54
71117;SHT31;58775;46.992;9.518;2024-01-15T10:39:35;2.33;88.63
71117;SHT31;58775;46.992;9.518;2024-01-15T10:41:37;2.21;89.08
71117;SHT31;58775;46.992;9.518;2024-01-15T10:43:38;2.21;89.21
71117;SHT31;58775;46.992;9.518;2024-01-15T10:45:39;2.08;89.04
71117;SHT31;58775;46.992;9.518;2024-01-15T10:47:41;1.95;91.25
71117;SHT31;58775;46.992;9.518;2024-01-15T10:49:42;1.95;91.41
71117;SHT31;58775;46.992;9.518;2024-01-15T10:51:43;1.77;91.72
71117;SHT31;58775;46.992;9.518;2024-01-15T10:53:45;1.88;91.42
71117;SHT31;58775;46.992;9.518;2024-01-15T10:55:47;2.08;90.02
71117;SHT31;58775;46.992;9.518;2024-01-15T10:57:52;1.86;90.65
71117;SHT31;58775;46.992;9.518;2024-01-15T10:59:53;1.88;91.64
71117;SHT31;58775;46.992;9.518;2024-01-15T11:01:55;1.81;91.57
71117;SHT31;58775;46.992;9.518;2024-01-15T11:03:56;2.04;90.58
71117;SHT31;58775;46.992;9.518;2024-01-15T11:05:59;2.19;89.53
71117;SHT31;58775;46.992;9.518;2024-01-15T11:08:01;2.15;89.97
71117;SHT31;58775;46.992;9.518;2024-01-15T11:10:04;2.28;89.21
71117;SHT31;58775;46.992;9.518;2024-01-15T11:12:15;2.32;88.99
71117;SHT31;58775;46.992;9.518;2024-01-15T11:14:50;2.01;89.47
71117;SHT31;58775;46.992;9.518;2024-01-15T11:16:55;2.06;89.51
71117;SHT31;58775;46.992;9.518;2024-01-15T11:23:42;1.82;90.80
71117;SHT31;58775;46.992;9.518;2024-01-15T11:25:44;1.77;90.15
71117;SHT31;58775;46.992;9.518;2024-01-15T11:27:51;1.63;90.32
71117;SHT31;58775;46.992;9.518;2024-01-15T11:30:03;1.79;90.22
71117;SHT31;58775;46.992;9.518;2024-01-15T11:32:09;1.86;89.82
71117;SHT31;58775;46.992;9.518;2024-01-15T11:34:10;1.77;90.52
71117;SHT31;58775;46.992;9.518;2024-01-15T11:36:12;1.92;89.69
71117;SHT31;58775;46.992;9.518;2024-01-15T11:38:26;1.95;88.79
71117;SHT31;58775;46.992;9.518;2024-01-15T11:42:34;1.89;89.18
71117;SHT31;58775;46.992;9.518;2024-01-15T11:44:37;1.92;89.12
71117;SHT31;58775;46.992;9.518;2024-01-15T11:46:44;1.72;88.92
71117;SHT31;58775;46.992;9.518;2024-01-15T11:48:54;1.82;88.72
71117;SHT31;58775;46.992;9.518;2024-01-15T11:51:00;1.89;88.68
71117;SHT31;58775;46.992;9.518;2024-01-15T11:53:03;1.77;89.60
71117;SHT31;58775;46.992;9.518;2024-01-15T11:55:19;1.84;88.58
71117;SHT31;58775;46.992;9.518;2024-01-15T11:57:32;1.92;88.83
71117;SHT31;58775;46.992;9.518;2024-01-15T11:59:34;1.95;88.44
71117;SHT31;58775;46.992;9.518;2024-01-15T12:01:35;1.98;88.26
71117;SHT31;58775;46.992;9.518;2024-01-15T12:03:36;2.08;87.54
71117;SHT31;58775;46.992;9.518;2024-01-15T12:05:38;1.97;87.99
71117;SHT31;58775;46.992;9.518;2024-01-15T12:07:43;1.75;87.72
71117;SHT31;58775;46.992;9.518;2024-01-15T12:09:44;1.81;88.31
71117;SHT31;58775;46.992;9.518;2024-01-15T12:11:51;1.65;89.06
71117;SHT31;58775;46.992;9.518;2024-01-15T12:13:54;1.48;88.76
71117;SHT31;58775;46.992;9.518;2024-01-15T12:15:57;1.60;88.35
71117;SHT31;58775;46.992;9.518;2024-01-15T12:18:00;1.74;88.79
71117;SHT31;58775;46.992;9.518;2024-01-15T12:20:05;1.72;88.78
71117;SHT31;58775;46.992;9.518;2024-01-15T12:22:06;1.53;90.10
71117;SHT31;58775;46.992;9.518;2024-01-15T12:24:07;1.61;88.70
71117;SHT31;58775;46.992;9.518;2024-01-15T12:26:08;1.46;90.74
71117;SHT31;58775;46.992;9.518;2024-01-15T12:28:10;1.31;89.90
71117;SHT31;58775;46.992;9.518;2024-01-15T12:30:13;1.12;91.54
71117;SHT31;58775;46.992;9.518;2024-01-15T12:32:15;1.17;92.30
71117;SHT31;58775;46.992;9.518;2024-01-15T12:34:18;0.99;92.80
71117;SHT31;58775;46.992;9.518;2024-01-15T12:36:23;1.09;92.84
71117;SHT31;58775;46.992;9.518;2024-01-15T12:38:29;0.93;93.72
71117;SHT31;58775;46.992;9.518;2024-01-15T12:40:33;0.89;94.72
71117;SHT31;58775;46.992;9.518;2024-01-15T12:42:37;0.93;94.59
71117;SHT31;58775;46.992;9.518;2024-01-15T12:44:39;1.09;94.04
71117;SHT31;58775;46.992;9.518;2024-01-15T12:46:40;1.03;94.99
71117;SHT31;58775;46.992;9.518;2024-01-15T12:48:41;1.30;92.89
71117;SHT31;58775;46.992;9.518;2024-01-15T12:50:43;1.31;93.01
71117;SHT31;58775;46.992;9.518;2024-01-15T12:52:44;1.22;94.09
71117;SHT31;58775;46.992;9.518;2024-01-15T12:54:45;1.29;93.40
71117;SHT31;58775;46.992;9.518;2024-01-15T12:56:46;1.31;93.17
71117;SHT31;58775;46.992;9.518;2024-01-15T12:58:46;1.22;94.39
71117;SHT31;58775;46.992;9.518;2024-01-15T13:00:47;1.03;94.27
71117;SHT31;58775;46.992;9.518;2024-01-15T13:02:48;0.96;95.47
71117;SHT31;58775;46.992;9.518;2024-01-15T13:04:50;0.95;95.50
71117;SHT31;58775;46.992;9.518;2024-01-15T13:06:51;1.10;94.39